createdAt,value
2019-05-07T00:01:14.235Z,7.60
2019-05-07T00:03:43.910Z,7.60
2019-05-07T00:06:13.838Z,7.60
2019-05-07T00:08:45.031Z,7.60
2019-05-07T00:11:14.910Z,7.60
2019-05-07T00:13:46.197Z,7.60
2019-05-07T00:16:16.040Z,7.60
2019-05-07T00:18:45.695Z,7.60
2019-05-07T00:21:15.382Z,7.60
2019-05-07T00:23:45.166Z,7.60
2019-05-07T00:26:14.906Z,7.60
2019-05-07T00:28:44.750Z,7.60
2019-05-07T00:31:17.402Z,7.60
2019-05-07T00:33:47.144Z,7.60
2019-05-07T00:36:26.507Z,7.50
2019-05-07T00:39:03.686Z,7.50
2019-05-07T00:41:42.682Z,7.50
2019-05-07T00:44:13.653Z,7.50
2019-05-07T00:46:43.436Z,7.50
2019-05-07T00:49:13.268Z,7.40
2019-05-07T00:51:43.147Z,7.30
2019-05-07T00:54:12.911Z,7.30
2019-05-07T00:56:42.993Z,7.30
2019-05-07T00:59:13.256Z,7.30
2019-05-07T01:01:43.374Z,7.20
2019-05-07T01:04:13.234Z,7.20
2019-05-07T01:06:42.913Z,7.20
2019-05-07T01:09:12.654Z,7.20
2019-05-07T01:11:43.018Z,7.10
2019-05-07T01:14:12.769Z,7.10
2019-05-07T01:16:42.476Z,7.00
2019-05-07T01:19:12.669Z,7.00
2019-05-07T01:21:43.249Z,7.00
2019-05-07T01:24:14.293Z,7.00
2019-05-07T01:26:44.186Z,7.00
2019-05-07T01:29:13.867Z,7.00
2019-05-07T01:31:52.577Z,7.00
2019-05-07T01:34:44.463Z,7.00
2019-05-07T01:37:14.291Z,7.00
2019-05-07T01:39:43.962Z,7.00
2019-05-07T01:42:13.636Z,7.10
2019-05-07T01:44:43.315Z,7.10
2019-05-07T01:47:13.231Z,7.10
2019-05-07T01:49:43.015Z,7.10
2019-05-07T01:52:13.431Z,7.10
2019-05-07T01:54:43.342Z,7.10
2019-05-07T01:57:13.327Z,7.10
2019-05-07T01:59:43.066Z,7.10
2019-05-07T02:02:25.010Z,7.10
2019-05-07T02:05:24.370Z,7.10
2019-05-07T02:07:58.153Z,7.10
2019-05-07T02:10:42.801Z,7.10
2019-05-07T02:13:13.640Z,7.10
2019-05-07T02:15:57.350Z,7.10
2019-05-07T02:18:14.807Z,7.00
2019-05-07T02:20:44.590Z,7.10
2019-05-07T02:23:14.266Z,7.00
2019-05-07T02:25:43.942Z,7.00
2019-05-07T02:28:13.739Z,7.00
2019-05-07T02:30:44.346Z,7.10
2019-05-07T02:33:14.489Z,7.10
2019-05-07T02:35:44.204Z,7.10
2019-05-07T02:38:27.396Z,7.10
2019-05-07T02:41:03.041Z,7.10
2019-05-07T02:43:33.748Z,7.10
2019-05-07T02:46:31.314Z,7.10
2019-05-07T02:49:04.071Z,7.10
2019-05-07T02:51:43.147Z,7.10
2019-05-07T02:54:20.079Z,7.10
2019-05-07T02:56:49.783Z,7.10
2019-05-07T02:59:23.047Z,7.20
2019-05-07T03:01:53.589Z,7.20
2019-05-07T03:04:24.942Z,7.10
2019-05-07T03:06:54.567Z,7.10
2019-05-07T03:09:24.517Z,7.10
2019-05-07T03:11:54.346Z,7.10
2019-05-07T03:14:24.090Z,7.10
2019-05-07T03:16:54.045Z,7.10
2019-05-07T03:19:25.398Z,7.10
2019-05-07T03:21:55.667Z,7.10
2019-05-07T03:24:56.787Z,7.10
2019-05-07T03:27:26.502Z,7.00
2019-05-07T03:30:16.065Z,7.10
2019-05-07T03:32:55.633Z,7.00
2019-05-07T03:35:37.131Z,7.00
2019-05-07T03:38:05.054Z,7.00
2019-05-07T03:40:35.995Z,7.00
2019-05-07T03:43:06.406Z,7.10
2019-05-07T03:45:55.482Z,7.00
2019-05-07T03:48:26.669Z,7.00
2019-05-07T03:50:56.375Z,7.10
2019-05-07T03:53:26.127Z,7.00
2019-05-07T03:55:55.871Z,7.10
2019-05-07T03:58:25.841Z,7.10
2019-05-07T04:00:55.526Z,7.10
2019-05-07T04:03:25.575Z,7.10
2019-05-07T04:05:55.422Z,7.10
2019-05-07T04:08:25.111Z,7.10
2019-05-07T04:10:54.778Z,7.10
2019-05-07T04:13:24.647Z,7.10
2019-05-07T04:15:54.416Z,7.10
2019-05-07T04:18:24.202Z,7.10
2019-05-07T04:20:54.257Z,7.20
2019-05-07T04:23:25.217Z,7.20
2019-05-07T04:26:13.408Z,7.20
2019-05-07T04:28:54.111Z,7.30
2019-05-07T04:31:24.053Z,7.30
2019-05-07T04:33:54.959Z,7.30
2019-05-07T04:36:27.381Z,7.30
2019-05-07T04:38:57.078Z,7.40
2019-05-07T04:41:26.754Z,7.40
2019-05-07T04:43:56.435Z,7.40
2019-05-07T04:46:26.126Z,7.40
2019-05-07T04:48:55.792Z,7.40
2019-05-07T04:51:35.618Z,7.40
2019-05-07T04:54:05.309Z,7.40
2019-05-07T04:56:35.007Z,7.40
2019-05-07T04:59:04.859Z,7.40
2019-05-07T05:01:38.277Z,7.50
2019-05-07T05:04:24.508Z,7.50
2019-05-07T05:06:39.422Z,7.60
2019-05-07T05:09:09.201Z,7.70
2019-05-07T05:11:39.039Z,7.90
2019-05-07T05:14:08.810Z,8.10
2019-05-07T05:16:38.566Z,8.30
2019-05-07T05:19:08.323Z,8.40
2019-05-07T05:21:53.913Z,8.50
2019-05-07T05:24:32.947Z,8.50
2019-05-07T05:27:02.983Z,8.60
2019-05-07T05:29:34.554Z,8.70
2019-05-07T05:32:04.362Z,8.80
2019-05-07T05:34:35.134Z,9.00
2019-05-07T05:37:05.094Z,9.10
2019-05-07T05:39:35.051Z,9.30
2019-05-07T05:42:13.183Z,9.40
2019-05-07T05:44:42.874Z,9.60
2019-05-07T05:47:12.563Z,9.80
2019-05-07T05:49:42.870Z,9.90
2019-05-07T05:52:22.049Z,10.00
2019-05-07T05:54:56.239Z,10.20
2019-05-07T05:57:43.474Z,10.30
2019-05-07T06:00:33.899Z,10.40
2019-05-07T06:03:22.730Z,10.50
2019-05-07T06:06:14.890Z,10.50
2019-05-07T06:09:09.838Z,10.60
2019-05-07T06:11:47.536Z,10.80
2019-05-07T06:14:26.902Z,10.90
2019-05-07T06:17:18.307Z,11.00
2019-05-07T06:19:58.531Z,11.10
2019-05-07T06:22:52.752Z,11.40
2019-05-07T06:25:24.876Z,11.80
2019-05-07T06:27:54.414Z,12.10
2019-05-07T06:30:24.273Z,12.30
2019-05-07T06:32:53.954Z,12.40
2019-05-07T06:35:23.643Z,12.50
2019-05-07T06:37:53.410Z,12.60
2019-05-07T06:40:57.485Z,12.70
2019-05-07T06:43:32.651Z,12.70
2019-05-07T06:46:03.080Z,12.60
2019-05-07T06:48:41.935Z,12.60
2019-05-07T06:51:04.311Z,12.60
2019-05-07T06:53:34.054Z,12.60
2019-05-07T06:56:04.287Z,12.60
2019-05-07T06:58:53.295Z,12.60
2019-05-07T07:01:42.385Z,12.60
2019-05-07T07:04:19.682Z,12.60
2019-05-07T07:07:27.256Z,12.50
2019-05-07T07:10:06.946Z,12.60
2019-05-07T07:12:37.019Z,12.70
2019-05-07T07:15:07.742Z,12.80
2019-05-07T07:17:37.571Z,12.90
2019-05-07T07:20:07.706Z,12.90
2019-05-07T07:22:37.429Z,12.90
2019-05-07T07:25:08.319Z,12.90
2019-05-07T07:27:38.099Z,13.00
2019-05-07T07:30:25.878Z,13.30
2019-05-07T07:32:56.646Z,13.40
2019-05-07T07:35:26.335Z,13.50
2019-05-07T07:37:56.090Z,13.80
2019-05-07T07:40:34.846Z,14.10
2019-05-07T07:43:06.985Z,14.30
2019-05-07T07:45:36.271Z,14.30
2019-05-07T07:48:06.020Z,14.20
2019-05-07T07:50:35.875Z,14.00
2019-05-07T07:53:05.678Z,14.00
2019-05-07T07:55:42.538Z,14.00
2019-05-07T07:58:31.640Z,14.00
2019-05-07T08:01:12.295Z,14.10
2019-05-07T08:03:42.125Z,14.10
2019-05-07T08:06:12.155Z,14.10
2019-05-07T08:08:42.465Z,14.00
2019-05-07T08:11:12.840Z,14.00
2019-05-07T08:13:42.638Z,13.90
2019-05-07T08:16:12.985Z,13.70
2019-05-07T08:18:43.706Z,13.60
2019-05-07T08:21:13.678Z,13.50
2019-05-07T08:23:43.353Z,13.50
2019-05-07T08:26:13.198Z,13.30
2019-05-07T08:28:42.971Z,13.50
2019-05-07T08:31:32.133Z,13.60
2019-05-07T08:34:25.376Z,13.80
2019-05-07T08:36:55.176Z,14.10
2019-05-07T08:39:25.319Z,14.30
2019-05-07T08:41:55.160Z,14.40
2019-05-07T08:44:29.054Z,14.60
2019-05-07T08:47:12.115Z,14.60
2019-05-07T08:49:43.349Z,14.70
2019-05-07T08:52:32.786Z,14.60
2019-05-07T08:55:02.570Z,14.50
2019-05-07T08:57:32.598Z,14.40
2019-05-07T09:00:04.651Z,14.30
2019-05-07T09:02:33.922Z,14.00
2019-05-07T09:05:03.856Z,13.80
2019-05-07T09:07:33.615Z,13.80
2019-05-07T09:10:03.598Z,13.70
2019-05-07T09:12:33.300Z,13.90
2019-05-07T09:15:03.106Z,14.00
2019-05-07T09:17:32.934Z,14.10
2019-05-07T09:20:02.979Z,14.30
2019-05-07T09:22:32.730Z,14.50
2019-05-07T09:25:03.219Z,14.70
2019-05-07T09:27:44.699Z,14.70
2019-05-07T09:30:22.587Z,14.80
2019-05-07T09:32:59.398Z,15.00
2019-05-07T09:35:39.653Z,15.10
2019-05-07T09:38:08.446Z,15.40
2019-05-07T09:40:38.141Z,15.60
2019-05-07T09:43:07.829Z,15.70
2019-05-07T09:45:37.578Z,15.70
2019-05-07T09:48:07.403Z,15.60
2019-05-07T09:50:37.181Z,15.90
2019-05-07T09:53:06.954Z,16.40
2019-05-07T09:55:36.734Z,16.90
2019-05-07T09:58:06.495Z,17.20
2019-05-07T10:00:36.538Z,17.50
2019-05-07T10:03:06.570Z,17.40
2019-05-07T10:05:36.470Z,17.50
2019-05-07T10:08:06.286Z,17.40
2019-05-07T10:10:36.162Z,17.40
2019-05-07T10:13:22.667Z,17.10
2019-05-07T10:15:52.720Z,17.20
2019-05-07T10:18:23.682Z,17.40
2019-05-07T10:20:53.523Z,17.10
2019-05-07T10:23:23.880Z,16.70
2019-05-07T10:25:55.124Z,16.40
2019-05-07T10:28:24.954Z,16.30
2019-05-07T10:30:55.337Z,16.60
2019-05-07T10:33:25.235Z,16.80
2019-05-07T10:35:55.016Z,17.20
2019-05-07T10:38:24.786Z,17.50
2019-05-07T10:40:54.618Z,17.80
2019-05-07T10:43:24.446Z,18.00
2019-05-07T10:46:14.019Z,18.10
2019-05-07T10:49:05.848Z,18.20
2019-05-07T10:51:35.758Z,18.20
2019-05-07T10:54:05.598Z,18.10
2019-05-07T10:56:35.306Z,18.20
2019-05-07T10:59:05.327Z,18.20
2019-05-07T11:01:44.362Z,18.30
2019-05-07T11:04:14.038Z,18.10
2019-05-07T11:06:43.802Z,17.70
2019-05-07T11:09:13.558Z,17.50
2019-05-07T11:11:43.294Z,17.20
2019-05-07T11:14:13.943Z,16.60
2019-05-07T11:16:52.053Z,16.20
2019-05-07T11:19:22.151Z,16.00
2019-05-07T11:21:52.205Z,15.80
2019-05-07T11:24:22.025Z,15.70
2019-05-07T11:26:53.153Z,15.80
2019-05-07T11:29:23.062Z,16.20
2019-05-07T11:31:52.826Z,16.60
2019-05-07T11:34:22.524Z,16.80
2019-05-07T11:36:52.464Z,16.90
2019-05-07T11:39:22.723Z,17.10
2019-05-07T11:42:24.002Z,17.20
2019-05-07T11:44:55.075Z,17.30
2019-05-07T11:47:27.918Z,17.40
2019-05-07T11:50:15.305Z,17.40
2019-05-07T11:52:51.751Z,17.20
2019-05-07T11:55:22.395Z,16.70
2019-05-07T11:57:53.682Z,16.40
2019-05-07T12:00:47.346Z,16.20
2019-05-07T12:03:17.174Z,15.80
2019-05-07T12:05:46.930Z,15.50
2019-05-07T12:08:16.688Z,15.30
2019-05-07T12:10:46.390Z,15.00
2019-05-07T12:13:16.176Z,14.70
2019-05-07T12:15:45.860Z,14.70
2019-05-07T12:18:15.698Z,14.50
2019-05-07T12:20:45.466Z,14.60
2019-05-07T12:23:15.134Z,14.90
2019-05-07T12:25:44.827Z,15.20
2019-05-07T12:28:14.869Z,15.30
2019-05-07T12:31:02.402Z,15.10
2019-05-07T12:33:54.222Z,15.00
2019-05-07T12:36:24.130Z,15.20
2019-05-07T12:38:53.994Z,15.30
2019-05-07T12:41:29.683Z,15.40
2019-05-07T12:44:04.770Z,15.20
2019-05-07T12:46:35.511Z,15.30
2019-05-07T12:49:06.605Z,15.50
2019-05-07T12:51:43.675Z,15.40
2019-05-07T12:54:29.301Z,15.50
2019-05-07T12:56:59.002Z,15.80
2019-05-07T12:59:28.970Z,15.90
2019-05-07T13:02:37.369Z,16.00
2019-05-07T13:04:54.428Z,16.10
2019-05-07T13:07:49.975Z,16.00
2019-05-07T13:10:21.792Z,15.90
2019-05-07T13:12:52.643Z,16.00
2019-05-07T13:15:27.616Z,16.10
2019-05-07T13:17:54.039Z,16.20
2019-05-07T13:20:24.023Z,16.50
2019-05-07T13:22:53.783Z,16.90
2019-05-07T13:25:28.342Z,17.10
2019-05-07T13:27:55.039Z,17.20
2019-05-07T13:30:24.862Z,17.20
2019-05-07T13:32:56.583Z,17.40
2019-05-07T13:35:26.695Z,17.80
2019-05-07T13:38:14.823Z,18.10
2019-05-07T13:40:58.971Z,18.40
2019-05-07T13:43:33.451Z,18.30
2019-05-07T13:46:12.112Z,18.20
2019-05-07T13:48:45.511Z,18.00
2019-05-07T13:51:14.739Z,18.10
2019-05-07T13:53:44.501Z,17.90
2019-05-07T13:56:14.635Z,17.70
2019-05-07T13:58:44.425Z,17.60
2019-05-07T14:01:27.913Z,17.80
2019-05-07T14:03:57.750Z,17.90
2019-05-07T14:06:39.482Z,17.80
2019-05-07T14:09:16.482Z,17.50
2019-05-07T14:11:46.322Z,17.00
2019-05-07T14:14:16.439Z,16.80
2019-05-07T14:16:46.299Z,16.60
2019-05-07T14:19:16.319Z,16.50
2019-05-07T14:21:46.039Z,16.80
2019-05-07T14:24:15.858Z,16.90
2019-05-07T14:26:45.702Z,17.30
2019-05-07T14:29:15.400Z,17.80
2019-05-07T14:31:51.746Z,17.90
2019-05-07T14:34:34.729Z,17.80
2019-05-07T14:37:08.150Z,17.40
2019-05-07T14:39:38.883Z,17.30
2019-05-07T14:42:12.820Z,17.10
2019-05-07T14:44:49.418Z,17.10
2019-05-07T14:47:22.085Z,16.90
2019-05-07T14:49:52.935Z,16.70
2019-05-07T14:52:32.262Z,16.50
2019-05-07T14:54:54.672Z,16.40
2019-05-07T14:57:25.588Z,16.30
2019-05-07T14:59:55.415Z,16.60
2019-05-07T15:02:25.174Z,16.90
2019-05-07T15:04:55.025Z,17.10
2019-05-07T15:07:24.851Z,17.10
2019-05-07T15:09:54.691Z,17.10
2019-05-07T15:12:24.587Z,17.30
2019-05-07T15:14:54.491Z,17.60
2019-05-07T15:17:33.703Z,18.20
2019-05-07T15:20:03.554Z,18.80
2019-05-07T15:22:58.483Z,18.80
2019-05-07T15:25:28.310Z,18.10
2019-05-07T15:27:58.142Z,17.60
2019-05-07T15:30:35.435Z,17.00
2019-05-07T15:33:05.282Z,16.80
2019-05-07T15:35:35.049Z,17.10
2019-05-07T15:38:04.895Z,17.50
2019-05-07T15:40:34.673Z,17.40
2019-05-07T15:43:04.499Z,17.30
2019-05-07T15:45:34.371Z,17.20
2019-05-07T15:48:04.329Z,17.00
2019-05-07T15:50:34.199Z,17.10
2019-05-07T15:53:12.261Z,17.20
2019-05-07T15:55:41.811Z,16.90
2019-05-07T15:58:12.086Z,16.70
2019-05-07T16:00:42.516Z,17.50
2019-05-07T16:03:18.243Z,19.20
2019-05-07T16:05:47.922Z,21.00
2019-05-07T16:08:18.591Z,22.60
2019-05-07T16:10:48.441Z,23.50
2019-05-07T16:13:23.162Z,24.00
2019-05-07T16:15:53.010Z,24.30
2019-05-07T16:18:27.662Z,24.50
2019-05-07T16:20:58.574Z,24.70
2019-05-07T16:23:28.579Z,24.90
2019-05-07T16:25:58.371Z,25.20
2019-05-07T16:28:28.049Z,24.80
2019-05-07T16:30:57.726Z,24.30
2019-05-07T16:33:27.612Z,23.40
2019-05-07T16:35:57.466Z,23.20
2019-05-07T16:38:27.183Z,23.00
2019-05-07T16:40:56.899Z,22.50
2019-05-07T16:43:26.575Z,22.50
2019-05-07T16:45:56.266Z,22.00
2019-05-07T16:48:26.014Z,21.00
2019-05-07T16:50:55.746Z,20.40
2019-05-07T16:53:29.924Z,20.30
2019-05-07T16:55:56.875Z,20.30
2019-05-07T16:58:42.620Z,20.20
2019-05-07T17:01:12.316Z,20.10
2019-05-07T17:03:52.319Z,20.20
2019-05-07T17:06:24.780Z,20.20
2019-05-07T17:09:02.432Z,20.00
2019-05-07T17:11:33.362Z,19.80
2019-05-07T17:14:03.205Z,19.80
2019-05-07T17:16:32.926Z,19.80
2019-05-07T17:19:02.747Z,19.40
2019-05-07T17:21:32.671Z,19.00
2019-05-07T17:24:02.730Z,18.90
2019-05-07T17:26:32.502Z,18.90
2019-05-07T17:29:02.692Z,18.80
2019-05-07T17:31:32.518Z,18.70
2019-05-07T17:34:02.384Z,18.60
2019-05-07T17:36:33.258Z,18.30
2019-05-07T17:39:03.541Z,18.10
2019-05-07T17:41:35.193Z,18.00
2019-05-07T17:44:05.023Z,17.90
2019-05-07T17:46:34.930Z,17.70
2019-05-07T17:49:04.780Z,17.00
2019-05-07T17:51:44.354Z,17.00
2019-05-07T17:54:15.026Z,16.90
2019-05-07T17:56:44.848Z,16.90
2019-05-07T17:59:14.618Z,16.80
2019-05-07T18:02:08.955Z,16.70
2019-05-07T18:04:50.569Z,16.50
2019-05-07T18:07:12.243Z,16.30
2019-05-07T18:09:42.554Z,16.20
2019-05-07T18:12:12.400Z,15.90
2019-05-07T18:14:42.514Z,15.60
2019-05-07T18:17:30.150Z,15.50
2019-05-07T18:19:59.903Z,15.40
2019-05-07T18:22:29.841Z,15.30
2019-05-07T18:25:01.671Z,15.30
2019-05-07T18:27:32.809Z,15.20
2019-05-07T18:30:02.905Z,15.10
2019-05-07T18:32:38.445Z,15.00
2019-05-07T18:35:08.495Z,14.80
2019-05-07T18:37:46.122Z,14.70
2019-05-07T18:40:15.919Z,14.60
2019-05-07T18:42:45.700Z,14.40
2019-05-07T18:45:15.727Z,14.30
2019-05-07T18:47:45.506Z,14.10
2019-05-07T18:50:15.347Z,14.00
2019-05-07T18:52:45.166Z,13.80
2019-05-07T18:55:15.131Z,13.60
2019-05-07T18:57:45.999Z,13.50
2019-05-07T19:00:22.088Z,13.40
2019-05-07T19:02:52.340Z,13.30
2019-05-07T19:05:22.331Z,13.10
2019-05-07T19:08:04.251Z,13.00
2019-05-07T19:10:23.905Z,12.90
2019-05-07T19:12:53.922Z,12.80
2019-05-07T19:15:23.799Z,12.70
2019-05-07T19:17:53.866Z,12.60
2019-05-07T19:20:23.727Z,12.60
2019-05-07T19:22:53.546Z,12.60
2019-05-07T19:25:23.422Z,12.50
2019-05-07T19:27:53.258Z,12.40
2019-05-07T19:30:23.978Z,12.30
2019-05-07T19:32:53.822Z,12.30
2019-05-07T19:35:23.590Z,12.20
2019-05-07T19:37:53.617Z,12.10
2019-05-07T19:40:23.416Z,12.10
2019-05-07T19:42:53.342Z,12.00
2019-05-07T19:45:24.500Z,11.90
2019-05-07T19:47:54.334Z,11.80
2019-05-07T19:50:24.051Z,11.60
2019-05-07T19:52:53.736Z,11.50
2019-05-07T19:55:23.414Z,11.30
2019-05-07T19:57:57.432Z,11.20
2019-05-07T20:00:27.594Z,11.00
2019-05-07T20:03:00.024Z,10.80
2019-05-07T20:05:32.153Z,10.70
2019-05-07T20:08:04.243Z,10.60
2019-05-07T20:10:42.195Z,10.40
2019-05-07T20:13:12.658Z,10.30
2019-05-07T20:15:46.757Z,10.20
2019-05-07T20:18:16.626Z,10.10
2019-05-07T20:20:46.419Z,10.00
2019-05-07T20:23:17.174Z,9.90
2019-05-07T20:25:47.067Z,9.80
2019-05-07T20:28:18.380Z,9.70
2019-05-07T20:30:48.139Z,9.70
2019-05-07T20:33:17.928Z,9.60
2019-05-07T20:35:47.624Z,9.50
2019-05-07T20:38:17.313Z,9.40
2019-05-07T20:40:47.018Z,9.40
2019-05-07T20:43:16.911Z,9.30
2019-05-07T20:45:46.775Z,9.30
2019-05-07T20:48:16.579Z,9.20
2019-05-07T20:50:46.341Z,9.20
2019-05-07T20:53:16.206Z,9.10
2019-05-07T20:55:54.623Z,9.00
2019-05-07T20:58:24.355Z,9.00
2019-05-07T21:00:54.139Z,8.90
2019-05-07T21:03:24.140Z,8.80
2019-05-07T21:05:54.066Z,8.80
2019-05-07T21:08:23.756Z,8.70
2019-05-07T21:10:53.865Z,8.70
2019-05-07T21:13:30.371Z,8.70
2019-05-07T21:15:56.237Z,8.60
2019-05-07T21:18:26.018Z,8.50
2019-05-07T21:20:55.687Z,8.50
2019-05-07T21:23:25.526Z,8.40
2019-05-07T21:25:55.379Z,8.40
2019-05-07T21:28:26.046Z,8.40
2019-05-07T21:30:55.878Z,8.30
2019-05-07T21:33:25.566Z,8.30
2019-05-07T21:35:55.275Z,8.30
2019-05-07T21:38:24.978Z,8.20
2019-05-07T21:40:54.754Z,8.30
2019-05-07T21:43:24.515Z,8.20
2019-05-07T21:45:54.214Z,8.20
2019-05-07T21:48:23.982Z,8.20
2019-05-07T21:50:54.460Z,8.20
2019-05-07T21:53:38.770Z,8.30
2019-05-07T21:56:20.059Z,8.30
2019-05-07T21:58:54.128Z,8.50
2019-05-07T22:01:33.557Z,8.60
2019-05-07T22:04:03.492Z,8.70
2019-05-07T22:06:33.179Z,8.80
2019-05-07T22:09:02.888Z,8.90
2019-05-07T22:11:34.358Z,9.00
2019-05-07T22:14:05.709Z,9.00
2019-05-07T22:16:35.504Z,9.00
2019-05-07T22:19:06.165Z,8.90
2019-05-07T22:21:35.966Z,8.80
2019-05-07T22:24:05.816Z,8.70
2019-05-07T22:26:35.590Z,8.60
2019-05-07T22:29:05.372Z,8.50
2019-05-07T22:31:54.207Z,8.30
2019-05-07T22:34:42.999Z,8.20
2019-05-07T22:37:14.515Z,8.10
2019-05-07T22:39:45.962Z,8.10
2019-05-07T22:42:17.362Z,8.10
2019-05-07T22:44:47.107Z,8.10
2019-05-07T22:47:22.445Z,8.10
2019-05-07T22:49:53.531Z,8.20
2019-05-07T22:52:23.049Z,8.20
2019-05-07T22:54:52.727Z,8.20
2019-05-07T22:57:42.016Z,8.20
2019-05-07T23:00:18.614Z,8.10
2019-05-07T23:02:48.398Z,8.00
2019-05-07T23:05:18.175Z,7.90
2019-05-07T23:07:48.478Z,7.90
2019-05-07T23:10:18.374Z,7.90
2019-05-07T23:12:48.161Z,7.90
2019-05-07T23:15:18.038Z,8.00
2019-05-07T23:17:48.711Z,7.90
2019-05-07T23:20:18.509Z,7.90
2019-05-07T23:22:48.190Z,7.80
2019-05-07T23:25:18.079Z,7.80
2019-05-07T23:27:47.766Z,7.70
2019-05-07T23:30:17.735Z,7.70
2019-05-07T23:32:47.579Z,7.70
2019-05-07T23:35:17.525Z,7.70
2019-05-07T23:37:47.346Z,7.80
2019-05-07T23:40:28.190Z,7.80
2019-05-07T23:43:02.400Z,7.90
2019-05-07T23:45:31.654Z,8.00
2019-05-07T23:48:02.762Z,8.10
2019-05-07T23:50:32.610Z,8.20
2019-05-07T23:53:02.369Z,8.40
2019-05-07T23:55:32.062Z,8.50
2019-05-07T23:58:03.125Z,8.60
